Time;durP1;ratioP1;P1;durP2;ratioP2;P2;SDS_P1;SDS_P2;PMS_P1;PMS_P2;Temp;Humidity;BMP_temperature;BMP_pressure;BME280_temperature;BME280_humidity;BME280_pressure;Samples;Min_cycle;Max_cycle;Signal;HPM_P1;HPM_P2
2022/10/26 00:01:22;;;;;;;0.82;0.82;;;10.60;93.40;;;;;;6240116;22;20917;-77
2022/10/26 00:03:49;;;;;;;0.75;0.63;;;10.70;91.20;;;;;;6238374;23;20451;-77
2022/10/26 00:06:19;;;;;;;1.60;0.80;;;10.70;86.10;;;;;;6240175;22;20390;-78
2022/10/26 00:08:46;;;;;;;0.70;0.70;;;10.60;75.60;;;;;;6250414;22;20949;-78
2022/10/26 00:11:17;;;;;;;1.20;0.80;;;10.70;66.40;;;;;;6240475;22;20386;-77
2022/10/26 00:13:45;;;;;;;0.77;0.77;;;10.70;56.70;;;;;;6238323;23;20475;-77
2022/10/26 00:16:25;;;;;;;0.75;0.75;;;10.60;46.10;;;;;;6237504;23;20393;-77
2022/10/26 00:18:52;;;;;;;0.50;0.50;;;10.70;39.50;;;;;;6238845;23;20440;-77
2022/10/26 00:21:18;;;;;;;1.05;0.85;;;10.70;32.60;;;;;;6238601;23;20707;-77
2022/10/26 00:23:45;;;;;;;1.17;0.82;;;10.60;27.80;;;;;;6238053;23;20404;-78
2022/10/26 00:26:12;;;;;;;0.60;0.60;;;10.60;26.00;;;;;;6250019;23;20385;-77
2022/10/26 00:28:39;;;;;;;0.68;0.63;;;10.70;26.30;;;;;;6238705;23;20479;-78
2022/10/26 00:31:12;;;;;;;1.50;0.90;;;10.70;23.80;;;;;;6231686;23;20867;-77
2022/10/26 00:33:39;;;;;;;0.95;0.90;;;10.70;19.70;;;;;;6239575;22;20424;-77
2022/10/26 00:36:08;;;;;;;0.60;0.60;;;10.70;16.20;;;;;;6238004;23;20398;-77
2022/10/26 00:38:37;;;;;;;0.80;0.80;;;10.70;14.80;;;;;;6240408;22;20396;-78
2022/10/26 00:41:06;;;;;;;1.93;0.90;;;10.80;11.50;;;;;;6240015;22;20396;-78
2022/10/26 00:43:37;;;;;;;1.00;1.00;;;10.80;5.90;;;;;;6239116;23;20397;-78
2022/10/26 00:46:07;;;;;;;0.53;0.53;;;10.80;1.00;;;;;;6239867;22;20439;-76
2022/10/26 00:48:37;;;;;;;0.80;0.80;;;10.80;1.00;;;;;;6239671;22;20398;-76
2022/10/26 00:51:46;;;;;;;0.63;0.63;;;10.80;1.00;;;;;;6240089;22;20767;-76
2022/10/26 00:54:19;;;;;;;0.70;0.70;;;10.80;1.00;;;;;;6116086;23;20464;-76
2022/10/26 00:56:50;;;;;;;0.80;0.80;;;10.80;1.00;;;;;;6126290;23;20403;-76
2022/10/26 00:59:17;;;;;;;0.88;0.65;;;10.80;1.00;;;;;;6116696;23;20459;-77
2022/10/26 01:01:46;;;;;;;1.00;0.90;;;10.80;1.00;;;;;;6126475;23;20880;-77
2022/10/26 01:04:14;;;;;;;0.80;0.70;;;10.80;1.00;;;;;;6102065;23;20384;-77
2022/10/26 01:06:44;;;;;;;0.73;0.73;;;10.70;1.00;;;;;;6117012;23;20400;-78
2022/10/26 01:09:12;;;;;;;1.20;1.10;;;10.70;1.00;;;;;;6116660;23;20400;-77
2022/10/26 01:11:38;;;;;;;0.80;0.80;;;10.80;1.00;;;;;;6092698;23;20459;-77
2022/10/26 01:14:08;;;;;;;0.80;0.80;;;10.70;1.00;;;;;;6126186;23;20654;-77
2022/10/26 01:16:53;;;;;;;1.45;0.82;;;10.70;1.00;;;;;;6116602;23;20392;-77
2022/10/26 01:19:22;;;;;;;0.83;0.80;;;10.70;1.00;;;;;;6116801;23;20407;-77
2022/10/26 01:21:57;;;;;;;0.70;0.70;;;10.60;1.00;;;;;;6116374;23;20944;-76
2022/10/26 01:24:51;;;;;;;0.70;0.68;;;10.70;1.00;;;;;;6091978;23;20474;-76
2022/10/26 01:27:27;;;;;;;0.90;0.90;;;10.70;1.00;;;;;;6092437;23;20432;-77
2022/10/26 01:30:08;;;;;;;2.00;0.80;;;10.80;1.00;;;;;;6136210;23;20401;-77
2022/10/26 01:33:14;;;;;;;0.98;0.95;;;10.70;1.00;;;;;;6239431;23;20878;-77
2022/10/26 01:35:56;;;;;;;0.77;0.77;;;10.70;1.00;;;;;;6238077;23;20420;-76
2022/10/26 01:38:37;;;;;;;1.48;0.90;;;10.80;1.00;;;;;;6239413;23;20443;-76
2022/10/26 01:41:11;;;;;;;1.80;1.20;;;10.80;1.00;;;;;;6239575;23;20382;-77
2022/10/26 01:43:42;;;;;;;0.70;0.70;;;10.80;1.00;;;;;;6239696;22;20393;-77
2022/10/26 01:46:10;;;;;;;1.65;0.55;;;10.70;1.00;;;;;;6239623;22;20382;-76
2022/10/26 01:48:39;;;;;;;0.70;0.70;;;10.80;1.00;;;;;;6240011;22;20671;-77
2022/10/26 01:51:07;;;;;;;0.60;0.60;;;10.80;1.00;;;;;;6237897;23;20439;-77
2022/10/26 01:53:33;;;;;;;0.73;0.73;;;10.80;1.00;;;;;;6249308;22;20436;-77
2022/10/26 01:56:01;;;;;;;0.70;0.60;;;10.80;1.00;;;;;;6239709;23;20562;-77
2022/10/26 01:58:49;;;;;;;0.90;0.90;;;10.80;1.00;;;;;;6241602;23;20385;-77
2022/10/26 02:01:34;;;;;;;0.63;0.63;;;10.80;1.00;;;;;;6241352;23;20389;-77
2022/10/26 02:04:13;;;;;;;0.80;0.80;;;10.80;1.00;;;;;;6240810;23;20412;-77
2022/10/26 02:07:02;;;;;;;0.65;0.60;;;10.80;1.00;;;;;;6241557;23;20476;-77
2022/10/26 02:09:51;;;;;;;0.52;0.52;;;10.80;1.00;;;;;;6240013;23;20483;-77
2022/10/26 02:12:27;;;;;;;2.00;0.70;;;10.70;1.00;;;;;;6249723;23;20475;-77
2022/10/26 02:15:18;;;;;;;0.68;0.52;;;10.70;1.00;;;;;;6240692;23;20389;-77
2022/10/26 02:17:57;;;;;;;2.60;0.60;;;10.70;1.00;;;;;;6251155;23;20416;-77
2022/10/26 02:20:36;;;;;;;0.70;0.70;;;10.70;1.00;;;;;;6241467;22;20393;-78
2022/10/26 02:23:09;;;;;;;0.65;0.60;;;10.70;1.00;;;;;;6241122;22;20446;-77
2022/10/26 02:25:41;;;;;;;0.68;0.68;;;10.70;1.00;;;;;;6241234;22;20420;-77
2022/10/26 02:28:11;;;;;;;0.85;0.70;;;10.70;1.00;;;;;;6241147;22;20924;-77
2022/10/26 02:30:39;;;;;;;3.40;0.60;;;10.70;1.00;;;;;;6241231;22;20452;-76
2022/10/26 02:33:16;;;;;;;0.40;0.40;;;10.60;1.00;;;;;;6241021;22;20393;-75
2022/10/26 02:35:49;;;;;;;1.00;0.60;;;10.70;1.00;;;;;;6239454;23;20879;-76
2022/10/26 02:38:18;;;;;;;0.55;0.55;;;10.60;1.00;;;;;;6241006;22;20389;-75
2022/10/26 02:40:48;;;;;;;1.45;0.65;;;10.60;1.00;;;;;;6239622;23;20923;-76
2022/10/26 02:43:20;;;;;;;0.73;0.73;;;10.60;1.00;;;;;;6240106;22;20981;-76
2022/10/26 02:45:55;;;;;;;0.88;0.68;;;10.70;1.00;;;;;;6241087;22;20385;-77
2022/10/26 02:48:22;;;;;;;1.07;0.77;;;10.70;1.00;;;;;;6239335;23;20389;-76
2022/10/26 02:51:07;;;;;;;0.60;0.60;;;10.70;1.00;;;;;;6241421;23;20452;-76
2022/10/26 02:54:06;;;;;;;0.60;0.60;;;10.70;1.00;;;;;;6240105;22;20870;-77
2022/10/26 02:56:51;;;;;;;1.05;0.68;;;10.60;1.00;;;;;;6240982;22;20402;-76
2022/10/26 02:59:21;;;;;;;1.50;0.50;;;10.60;1.00;;;;;;6251292;22;20888;-76
2022/10/26 03:01:52;;;;;;;0.57;0.57;;;10.60;1.00;;;;;;6238974;23;20463;-76
2022/10/26 03:04:19;;;;;;;1.05;0.75;;;10.60;1.00;;;;;;6240150;22;20919;-76
2022/10/26 03:06:55;;;;;;;0.82;0.60;;;10.60;1.60;;;;;;6240689;22;20390;-76
2022/10/26 03:09:25;;;;;;;0.77;0.77;;;10.60;4.30;;;;;;6239300;23;20385;-76
2022/10/26 03:11:52;;;;;;;0.70;0.70;;;10.60;8.40;;;;;;6239522;23;20448;-77
2022/10/26 03:14:19;;;;;;;0.90;0.60;;;10.60;11.90;;;;;;6240291;22;20734;-76
2022/10/26 03:16:46;;;;;;;0.73;0.55;;;10.60;13.60;;;;;;6240549;23;20390;-76
2022/10/26 03:19:13;;;;;;;0.60;0.60;;;10.60;16.10;;;;;;6239105;23;20394;-76
2022/10/26 03:21:41;;;;;;;0.88;0.88;;;10.60;19.10;;;;;;6239051;23;20467;-76
2022/10/26 03:24:08;;;;;;;1.23;0.82;;;10.60;22.00;;;;;;6240412;22;20645;-76
2022/10/26 03:26:35;;;;;;;0.77;0.77;;;10.60;23.90;;;;;;6238990;23;20397;-76
2022/10/26 03:29:02;;;;;;;0.70;0.70;;;10.60;24.20;;;;;;6240698;23;20637;-77
2022/10/26 03:31:31;;;;;;;0.65;0.65;;;10.60;26.50;;;;;;6239174;23;20398;-76
2022/10/26 03:33:58;;;;;;;0.90;0.90;;;10.70;28.00;;;;;;6240351;23;20389;-76
2022/10/26 03:36:25;;;;;;;1.10;0.70;;;10.70;29.20;;;;;;6250484;23;20393;-76
2022/10/26 03:38:51;;;;;;;0.95;0.95;;;10.70;29.20;;;;;;6239086;23;20385;-76
2022/10/26 03:41:27;;;;;;;0.50;0.50;;;10.70;30.00;;;;;;6240485;23;20480;-76
2022/10/26 03:43:53;;;;;;;0.40;0.40;;;10.70;30.50;;;;;;6240090;23;20394;-76
2022/10/26 03:46:20;;;;;;;0.55;0.55;;;10.70;34.70;;;;;;6250430;23;20393;-76
2022/10/26 03:48:47;;;;;;;2.67;0.65;;;10.60;36.90;;;;;;6240504;23;20386;-76
2022/10/26 03:51:13;;;;;;;0.77;0.65;;;10.60;40.40;;;;;;6240552;23;20390;-76
2022/10/26 03:53:43;;;;;;;0.55;0.55;;;10.60;46.60;;;;;;6248644;23;20389;-76
2022/10/26 03:56:10;;;;;;;0.90;0.60;;;10.60;51.80;;;;;;6238818;23;20431;-76
2022/10/26 03:58:42;;;;;;;0.82;0.70;;;10.60;56.20;;;;;;6240290;23;20429;-76
2022/10/26 04:01:09;;;;;;;0.40;0.40;;;10.50;60.20;;;;;;6239162;23;20436;-76
2022/10/26 04:03:38;;;;;;;0.80;0.60;;;10.60;64.80;;;;;;6250147;23;20424;-77
2022/10/26 04:06:05;;;;;;;0.85;0.70;;;10.50;68.10;;;;;;6239823;23;20397;-76
2022/10/26 04:08:32;;;;;;;0.50;0.50;;;10.50;69.90;;;;;;6238732;23;20444;-76
2022/10/26 04:10:58;;;;;;;0.60;0.60;;;10.50;72.80;;;;;;6240584;23;20393;-77
2022/10/26 04:13:30;;;;;;;0.75;0.68;;;10.50;75.40;;;;;;6250002;23;20394;-76
2022/10/26 04:15:57;;;;;;;0.70;0.70;;;10.50;77.50;;;;;;6240861;22;20390;-77
2022/10/26 04:18:24;;;;;;;0.60;0.60;;;10.50;78.40;;;;;;6240468;23;20399;-76
2022/10/26 04:20:50;;;;;;;0.68;0.68;;;10.50;77.90;;;;;;6240359;23;20390;-77
2022/10/26 04:23:20;;;;;;;0.93;0.68;;;10.40;79.60;;;;;;6248309;23;20419;-77
2022/10/26 04:25:47;;;;;;;0.98;0.68;;;10.40;86.40;;;;;;6238610;23;20447;-77
2022/10/26 04:28:14;;;;;;;0.80;0.60;;;10.40;90.10;;;;;;6238570;23;20425;-77
2022/10/26 04:30:41;;;;;;;0.80;0.80;;;10.50;91.90;;;;;;6240156;23;20603;-77
2022/10/26 04:33:07;;;;;;;0.63;0.63;;;10.50;94.20;;;;;;6239401;23;20390;-76
2022/10/26 04:35:34;;;;;;;0.52;0.52;;;10.50;95.80;;;;;;6238670;23;20463;-76
2022/10/26 04:38:03;;;;;;;0.55;0.55;;;10.50;95.70;;;;;;6238502;23;20402;-77
2022/10/26 04:40:33;;;;;;;0.57;0.57;;;10.50;95.90;;;;;;6240350;22;20459;-76
2022/10/26 04:43:00;;;;;;;0.30;0.30;;;10.40;95.30;;;;;;6238016;23;20444;-77
2022/10/26 04:45:35;;;;;;;0.65;0.65;;;10.40;93.50;;;;;;6240079;23;20390;-76
2022/10/26 04:48:08;;;;;;;1.90;0.50;;;10.30;90.30;;;;;;6239651;23;20397;-76
2022/10/26 04:50:36;;;;;;;4.20;0.70;;;10.30;90.40;;;;;;6240217;22;20401;-77
2022/10/26 04:53:09;;;;;;;0.40;0.35;;;10.30;92.60;;;;;;6249362;22;20447;-76
2022/10/26 04:55:36;;;;;;;0.80;0.50;;;10.20;95.00;;;;;;6249830;22;20390;-76
2022/10/26 04:58:03;;;;;;;0.63;0.52;;;10.20;98.40;;;;;;6239607;22;20390;-77
2022/10/26 05:00:31;;;;;;;0.60;0.60;;;10.20;99.90;;;;;;6237983;23;20386;-76
2022/10/26 05:03:03;;;;;;;0.77;0.77;;;10.30;99.90;;;;;;6238998;22;20514;-76
2022/10/26 05:05:34;;;;;;;0.90;0.70;;;10.30;99.90;;;;;;6239885;22;20397;-77
2022/10/26 05:08:01;;;;;;;0.55;0.55;;;10.30;99.90;;;;;;6239876;22;20410;-76
2022/10/26 05:10:31;;;;;;;0.60;0.60;;;10.30;99.90;;;;;;6238562;23;20394;-77
2022/10/26 05:12:59;;;;;;;1.10;0.80;;;10.30;99.90;;;;;;6238842;22;20870;-76
2022/10/26 05:15:27;;;;;;;0.45;0.45;;;10.30;99.90;;;;;;6249518;23;20461;-76
2022/10/26 05:17:56;;;;;;;0.88;0.88;;;10.20;99.90;;;;;;6238212;23;20390;-77
2022/10/26 05:20:30;;;;;;;0.98;0.60;;;10.10;99.90;;;;;;6239872;22;20426;-76
2022/10/26 05:22:59;;;;;;;0.52;0.52;;;10.10;99.90;;;;;;6237379;23;20417;-76
2022/10/26 05:25:29;;;;;;;0.60;0.60;;;10.00;99.90;;;;;;6249524;22;20381;-76
2022/10/26 05:27:59;;;;;;;0.52;0.52;;;9.90;99.90;;;;;;6239304;22;20389;-77
2022/10/26 05:30:28;;;;;;;0.90;0.68;;;9.90;99.90;;;;;;6238100;23;20759;-76
2022/10/26 05:32:59;;;;;;;0.70;0.70;;;9.90;99.90;;;;;;6237529;23;20390;-76
2022/10/26 05:35:26;;;;;;;0.80;0.40;;;9.90;99.90;;;;;;6248195;23;20854;-76
2022/10/26 05:37:53;;;;;;;0.50;0.50;;;9.90;99.90;;;;;;6239273;23;20423;-76
2022/10/26 05:40:20;;;;;;;0.75;0.50;;;10.00;99.90;;;;;;6239437;22;20439;-76
2022/10/26 05:42:47;;;;;;;0.45;0.45;;;10.10;99.90;;;;;;6239681;23;20455;-76
2022/10/26 05:45:14;;;;;;;0.55;0.55;;;10.10;99.90;;;;;;6238895;22;20909;-77
2022/10/26 05:47:43;;;;;;;0.60;0.60;;;10.10;99.90;;;;;;6250121;23;20389;-77
2022/10/26 05:50:13;;;;;;;0.70;0.70;;;10.10;99.90;;;;;;6238178;23;20472;-77
2022/10/26 05:52:43;;;;;;;0.40;0.40;;;10.10;99.90;;;;;;6237808;23;20439;-77
2022/10/26 05:55:12;;;;;;;0.80;0.80;;;10.10;99.90;;;;;;6248717;22;20993;-76
2022/10/26 05:57:39;;;;;;;0.67;0.67;;;10.10;99.90;;;;;;6239461;22;20401;-76
2022/10/26 06:00:16;;;;;;;0.60;0.60;;;10.10;99.90;;;;;;6238240;23;20386;-77
2022/10/26 06:03:01;;;;;;;0.87;0.63;;;10.10;99.90;;;;;;6238511;23;20473;-76
2022/10/26 06:05:32;;;;;;;0.70;0.70;;;10.00;99.90;;;;;;6239764;23;20389;-76
2022/10/26 06:07:59;;;;;;;0.60;0.60;;;10.00;99.90;;;;;;6239726;22;20389;-77
2022/10/26 06:10:26;;;;;;;0.68;0.68;;;10.00;99.90;;;;;;6239545;23;20483;-76
2022/10/26 06:12:53;;;;;;;0.80;0.80;;;10.00;99.90;;;;;;6247890;23;20878;-77
2022/10/26 06:15:21;;;;;;;0.50;0.50;;;10.00;99.90;;;;;;6249208;23;20606;-76
2022/10/26 06:18:03;;;;;;;0.60;0.60;;;10.00;99.90;;;;;;6239904;22;20393;-76
2022/10/26 06:20:38;;;;;;;0.38;0.38;;;10.00;99.90;;;;;;6239799;22;20397;-76
2022/10/26 06:23:23;;;;;;;0.55;0.55;;;10.00;99.90;;;;;;6237227;23;20396;-77
2022/10/26 06:26:09;;;;;;;1.40;0.43;;;10.10;99.90;;;;;;6239565;22;20636;-76
2022/10/26 06:28:48;;;;;;;0.90;0.55;;;10.10;99.90;;;;;;6249587;22;20762;-77
2022/10/26 06:31:19;;;;;;;1.63;0.50;;;10.10;99.90;;;;;;6239378;23;20393;-76
2022/10/26 06:33:46;;;;;;;0.47;0.47;;;10.20;99.90;;;;;;6237485;23;20393;-77
2022/10/26 06:36:23;;;;;;;1.00;0.90;;;10.20;99.90;;;;;;6238281;23;20390;-76
2022/10/26 06:39:07;;;;;;;0.77;0.77;;;10.30;99.90;;;;;;6239771;22;20416;-76
2022/10/26 06:41:35;;;;;;;0.70;0.70;;;10.30;99.90;;;;;;6239979;22;20443;-76
2022/10/26 06:44:03;;;;;;;0.47;0.47;;;10.30;99.90;;;;;;6240358;23;20424;-76
2022/10/26 06:46:49;;;;;;;0.40;0.40;;;10.40;99.90;;;;;;6241802;22;20397;-77
2022/10/26 06:49:24;;;;;;;0.47;0.47;;;10.40;99.90;;;;;;6251752;23;20769;-77
2022/10/26 06:51:57;;;;;;;0.57;0.57;;;10.50;99.90;;;;;;6243634;22;20396;-77
2022/10/26 06:54:36;;;;;;;0.40;0.40;;;10.50;99.90;;;;;;6250490;22;20381;-77
2022/10/26 06:57:03;;;;;;;0.45;0.45;;;10.60;99.90;;;;;;6239397;23;20394;-76
2022/10/26 06:59:37;;;;;;;0.63;0.63;;;10.60;99.90;;;;;;6239338;23;20394;-77
2022/10/26 07:02:04;;;;;;;0.60;0.60;;;10.70;99.90;;;;;;6239958;23;20397;-76
2022/10/26 07:04:32;;;;;;;1.00;0.80;;;10.70;99.90;;;;;;6240940;23;20394;-77
2022/10/26 07:06:59;;;;;;;0.45;0.45;;;10.80;99.90;;;;;;6241622;23;20390;-77
2022/10/26 07:09:25;;;;;;;0.50;0.50;;;10.80;99.90;;;;;;6239954;23;20421;-77
2022/10/26 07:11:52;;;;;;;0.60;0.60;;;10.80;99.90;;;;;;6241176;23;20471;-76
2022/10/26 07:14:19;;;;;;;1.13;0.90;;;10.90;99.90;;;;;;6240714;23;20885;-76
2022/10/26 07:16:45;;;;;;;0.40;0.40;;;10.90;99.90;;;;;;6239461;23;20477;-77
2022/10/26 07:19:12;;;;;;;0.40;0.40;;;11.00;99.90;;;;;;6251113;23;20968;-76
2022/10/26 07:21:39;;;;;;;0.57;0.57;;;11.10;99.90;;;;;;6239919;23;20390;-76
2022/10/26 07:24:06;;;;;;;0.50;0.50;;;11.10;99.90;;;;;;6240866;23;20397;-77
2022/10/26 07:26:32;;;;;;;1.10;0.70;;;11.20;99.90;;;;;;6241133;22;20386;-76
2022/10/26 07:28:59;;;;;;;1.23;0.83;;;11.30;99.90;;;;;;6240865;23;20393;-77
2022/10/26 07:31:26;;;;;;;0.77;0.63;;;11.30;99.90;;;;;;6239977;23;20528;-76
2022/10/26 07:33:53;;;;;;;0.85;0.70;;;11.40;99.90;;;;;;6240548;23;20885;-76
2022/10/26 07:36:23;;;;;;;1.25;1.15;;;11.50;99.90;;;;;;6251141;23;20769;-76
2022/10/26 07:38:53;;;;;;;0.57;0.57;;;11.40;99.90;;;;;;6249204;23;20613;-76
2022/10/26 07:41:19;;;;;;;0.70;0.70;;;11.40;99.90;;;;;;6250982;23;20769;-76
2022/10/26 07:43:49;;;;;;;1.20;0.70;;;11.40;99.90;;;;;;6240447;23;20411;-76
2022/10/26 07:46:19;;;;;;;0.65;0.55;;;11.40;99.90;;;;;;6240686;22;20870;-75
2022/10/26 07:48:46;;;;;;;0.55;0.55;;;11.50;99.90;;;;;;6239807;23;20390;-76
2022/10/26 07:51:13;;;;;;;0.90;0.90;;;11.50;99.90;;;;;;6239108;23;20394;-76
2022/10/26 07:53:39;;;;;;;3.60;2.10;;;11.60;99.90;;;;;;6240214;22;20385;-76
2022/10/26 07:56:09;;;;;;;5.95;2.92;;;11.70;99.90;;;;;;6240746;23;20389;-76
2022/10/26 07:58:36;;;;;;;1.33;1.10;;;11.90;99.90;;;;;;6239478;23;20393;-76
2022/10/26 08:01:11;;;;;;;0.70;0.70;;;11.90;99.90;;;;;;6241245;23;20385;-77
2022/10/26 08:03:39;;;;;;;0.80;0.75;;;12.10;99.90;;;;;;6250364;22;20393;-76
2022/10/26 08:06:06;;;;;;;2.33;0.73;;;12.20;99.90;;;;;;6240318;23;20405;-76
2022/10/26 08:08:33;;;;;;;1.25;0.80;;;12.30;99.90;;;;;;6239312;23;20412;-76
2022/10/26 08:11:00;;;;;;;0.90;0.90;;;12.50;99.90;;;;;;6250948;23;20425;-76
2022/10/26 08:13:27;;;;;;;1.40;0.93;;;12.60;99.90;;;;;;6239022;23;20394;-77
2022/10/26 08:16:01;;;;;;;1.40;0.70;;;12.80;99.90;;;;;;6240369;22;20443;-77
2022/10/26 08:18:29;;;;;;;0.95;0.90;;;13.10;99.90;;;;;;6240711;22;20394;-76
2022/10/26 08:21:01;;;;;;;1.08;0.95;;;13.40;99.90;;;;;;6240683;22;20386;-77
2022/10/26 08:23:37;;;;;;;1.48;0.80;;;13.70;99.90;;;;;;6239972;22;20397;-76
2022/10/26 08:26:04;;;;;;;1.85;0.80;;;14.00;45.10;;;;;;6238471;23;20753;-77
2022/10/26 08:28:31;;;;;;;3.50;0.77;;;14.30;1.00;;;;;;6238073;23;20397;-77
2022/10/26 08:30:57;;;;;;;0.70;0.70;;;14.50;99.90;;;;;;6238481;23;20467;-77
2022/10/26 08:33:27;;;;;;;1.00;1.00;;;14.70;1.00;;;;;;6239670;23;20393;-77
2022/10/26 08:35:59;;;;;;;1.10;0.80;;;14.90;99.90;;;;;;6250448;23;20389;-77
2022/10/26 08:38:26;;;;;;;0.80;0.80;;;15.30;99.90;;;;;;6238412;23;20464;-77
2022/10/26 08:40:57;;;;;;;0.70;0.70;;;15.80;1.00;;;;;;6239926;22;20390;-77
2022/10/26 08:43:33;;;;;;;0.90;0.90;;;16.40;99.90;;;;;;6239749;22;20413;-77
2022/10/26 08:46:16;;;;;;;1.23;0.93;;;16.90;1.00;;;;;;6240323;22;20389;-77
2022/10/26 08:48:47;;;;;;;1.55;0.90;;;17.40;1.00;;;;;;6239953;22;20390;-77
2022/10/26 08:51:35;;;;;;;0.85;0.73;;;17.40;1.00;;;;;;6240418;22;20416;-78
2022/10/26 08:54:12;;;;;;;0.90;0.90;;;17.20;99.90;;;;;;6237684;23;20870;-78
2022/10/26 08:56:57;;;;;;;0.73;0.73;;;17.10;99.90;;;;;;6239998;22;20397;-78
2022/10/26 08:59:36;;;;;;;0.85;0.85;;;17.00;99.90;;;;;;6240011;22;20956;-78
2022/10/26 09:02:10;;;;;;;1.30;0.80;;;16.40;99.90;;;;;;6250046;22;20432;-78
2022/10/26 09:04:36;;;;;;;1.13;0.90;;;16.10;99.90;;;;;;6237918;23;20910;-78
2022/10/26 09:07:40;;;;;;;1.58;1.17;;;16.30;1.00;;;;;;6239739;23;20878;-78
2022/10/26 09:10:37;;;;;;;1.15;1.05;;;15.90;1.00;;;;;;6240172;23;20394;-79
2022/10/26 09:13:34;;;;;;;1.10;1.00;;;15.90;1.00;;;;;;6239296;23;20394;-78
2022/10/26 09:16:18;;;;;;;1.80;1.10;;;16.00;1.00;;;;;;6239751;23;20393;-78
2022/10/26 09:18:53;;;;;;;0.93;0.93;;;16.40;1.00;;;;;;6239900;23;20766;-78
2022/10/26 09:21:37;;;;;;;0.60;0.60;;;16.20;1.00;;;;;;6240175;22;20390;-78
2022/10/26 09:24:13;;;;;;;0.70;0.70;;;16.50;1.00;;;;;;6237833;23;20394;-79
2022/10/26 09:27:23;;;;;;;1.60;1.00;;;16.60;1.00;;;;;;6240057;22;20390;-78
2022/10/26 09:29:52;;;;;;;2.10;1.10;;;16.50;1.00;;;;;;6250242;22;20386;-78
2022/10/26 09:32:24;;;;;;;1.00;0.83;;;16.70;1.00;;;;;;6240335;22;20452;-78
2022/10/26 09:34:55;;;;;;;0.80;0.80;;;16.80;1.00;;;;;;6239449;22;20389;-78
2022/10/26 09:37:36;;;;;;;0.90;0.90;;;16.90;1.00;;;;;;6239909;22;20389;-78
2022/10/26 09:40:20;;;;;;;0.85;0.70;;;17.10;1.00;;;;;;6239926;23;20484;-79
2022/10/26 09:43:14;;;;;;;1.08;0.98;;;17.40;1.00;;;;;;6239982;22;20386;-79
2022/10/26 09:46:01;;;;;;;1.02;0.93;;;17.90;1.00;;;;;;6249979;23;20436;-78
2022/10/26 09:48:30;;;;;;;0.70;0.70;;;18.40;99.90;;;;;;6240115;23;20390;-79
2022/10/26 09:50:59;;;;;;;1.60;0.93;;;18.90;99.90;;;;;;6239726;23;20390;-79
2022/10/26 09:53:31;;;;;;;1.35;0.70;;;19.00;99.90;;;;;;6239288;22;20385;-78
2022/10/26 09:56:05;;;;;;;0.68;0.68;;;18.60;99.90;;;;;;6239429;23;20393;-78
2022/10/26 09:58:42;;;;;;;2.80;0.90;;;18.50;99.90;;;;;;6239585;22;20394;-78
2022/10/26 10:01:31;;;;;;;1.02;0.95;;;18.40;99.90;;;;;;6249411;22;20862;-78
2022/10/26 10:04:15;;;;;;;1.20;0.80;;;18.20;99.90;;;;;;6238852;23;20866;-78
2022/10/26 10:06:50;;;;;;;1.30;0.73;;;17.70;99.90;;;;;;6239224;22;20583;-78
2022/10/26 10:09:20;;;;;;;0.90;0.90;;;17.40;99.90;;;;;;6239483;23;20507;-79
2022/10/26 10:11:56;;;;;;;1.30;0.80;;;17.20;99.90;;;;;;6239538;22;20389;-78
2022/10/26 10:14:36;;;;;;;0.82;0.80;;;17.50;99.90;;;;;;6248686;22;20711;-79
2022/10/26 10:17:24;;;;;;;1.00;1.00;;;18.20;99.90;;;;;;6240991;23;20888;-79
2022/10/26 10:19:51;;;;;;;1.25;0.73;;;18.30;99.90;;;;;;6242046;22;20728;-78
2022/10/26 10:22:25;;;;;;;0.80;0.80;;;18.70;99.90;;;;;;6240036;23;20396;-79
2022/10/26 10:24:57;;;;;;;0.70;0.70;;;19.10;99.90;;;;;;6240817;22;20436;-79
2022/10/26 10:27:25;;;;;;;0.88;0.88;;;20.00;99.90;;;;;;6241590;22;20428;-78
2022/10/26 10:29:56;;;;;;;0.93;0.93;;;20.00;99.90;;;;;;6241986;22;20418;-78
2022/10/26 10:32:31;;;;;;;0.88;0.88;;;19.60;99.90;;;;;;6241634;22;20397;-79
2022/10/26 10:35:22;;;;;;;0.88;0.88;;;19.80;99.90;;;;;;6239921;23;20389;-78
2022/10/26 10:37:50;;;;;;;0.80;0.80;;;20.20;99.90;;;;;;6241564;22;20389;-79
2022/10/26 10:40:24;;;;;;;1.17;0.88;;;20.90;99.90;;;;;;6241320;22;20773;-79
2022/10/26 10:43:00;;;;;;;0.80;0.80;;;21.00;99.90;;;;;;6240589;22;20437;-78
2022/10/26 10:45:30;;;;;;;1.02;0.65;;;20.30;99.90;;;;;;6239672;23;20393;-79
2022/10/26 10:48:13;;;;;;;1.30;0.80;;;19.60;99.90;;;;;;6241244;22;20397;-78
2022/10/26 10:50:57;;;;;;;0.70;0.70;;;19.80;99.90;;;;;;6239318;23;20447;-78
2022/10/26 10:53:45;;;;;;;0.75;0.73;;;20.30;99.90;;;;;;6240757;22;20416;-78
2022/10/26 10:56:47;;;;;;;0.85;0.85;;;21.00;99.90;;;;;;6251232;22;20878;-78
2022/10/26 10:59:35;;;;;;;0.80;0.80;;;20.90;99.90;;;;;;6223890;23;20400;-78
2022/10/26 11:02:04;;;;;;;1.75;1.05;;;20.70;99.90;;;;;;6251490;22;20386;-78
2022/10/26 11:04:53;;;;;;;0.80;0.80;;;20.90;99.90;;;;;;6240224;23;20780;-79
2022/10/26 11:07:21;;;;;;;2.00;0.70;;;20.90;99.90;;;;;;6239167;23;20740;-78
2022/10/26 11:09:49;;;;;;;0.80;0.80;;;20.40;99.90;;;;;;6239652;23;20436;-78
2022/10/26 11:12:30;;;;;;;0.68;0.68;;;20.40;99.90;;;;;;6240623;22;20869;-78
2022/10/26 11:15:13;;;;;;;0.60;0.60;;;20.60;99.90;;;;;;6238560;23;20400;-78
2022/10/26 11:17:54;;;;;;;0.60;0.60;;;20.70;99.90;;;;;;6240856;22;20862;-78
2022/10/26 11:20:25;;;;;;;0.63;0.63;;;20.80;99.90;;;;;;6241110;22;20455;-79
2022/10/26 11:22:52;;;;;;;1.23;0.73;;;20.70;99.90;;;;;;6240771;22;20386;-78
2022/10/26 11:25:35;;;;;;;0.77;0.70;;;20.70;99.90;;;;;;6239319;23;21034;-78
2022/10/26 11:28:15;;;;;;;0.60;0.60;;;20.80;99.90;;;;;;6238958;23;20385;-78
2022/10/26 11:30:48;;;;;;;0.90;0.60;;;20.90;99.90;;;;;;6239366;23;20935;-79
2022/10/26 11:33:21;;;;;;;0.70;0.57;;;20.90;99.90;;;;;;6240149;22;20464;-78
2022/10/26 11:35:59;;;;;;;1.00;0.70;;;20.90;99.90;;;;;;6250892;22;20765;-79
2022/10/26 11:38:38;;;;;;;1.00;0.90;;;21.00;99.90;;;;;;6238752;23;20846;-78
2022/10/26 11:41:36;;;;;;;0.57;0.57;;;20.60;99.90;;;;;;6241162;23;20390;-79
2022/10/26 11:44:27;;;;;;;0.80;0.80;;;20.10;99.90;;;;;;6240960;22;20459;-78
2022/10/26 11:46:59;;;;;;;1.50;0.80;;;19.70;99.90;;;;;;6241233;22;20394;-79
2022/10/26 11:49:39;;;;;;;0.70;0.60;;;19.40;99.90;;;;;;6241164;22;20452;-79
2022/10/26 11:52:16;;;;;;;0.60;0.60;;;19.00;99.90;;;;;;6242095;22;21047;-78
2022/10/26 11:55:03;;;;;;;0.77;0.60;;;19.20;99.90;;;;;;6240797;22;20393;-78
2022/10/26 11:57:33;;;;;;;0.63;0.50;;;19.30;99.90;;;;;;6240981;22;20444;-79
2022/10/26 12:00:13;;;;;;;2.47;0.70;;;19.30;99.90;;;;;;6251589;22;20443;-78
2022/10/26 12:03:09;;;;;;;0.75;0.65;;;19.20;99.90;;;;;;6240811;22;20436;-78
2022/10/26 12:05:39;;;;;;;0.70;0.70;;;19.20;99.90;;;;;;6240940;22;20390;-78
2022/10/26 12:08:36;;;;;;;0.50;0.50;;;19.50;99.90;;;;;;6241105;23;20386;-78
2022/10/26 12:11:33;;;;;;;0.65;0.65;;;19.50;99.90;;;;;;6241410;22;20393;-77
2022/10/26 12:14:16;;;;;;;1.38;0.70;;;19.70;99.90;;;;;;6239870;22;20421;-78
2022/10/26 12:17:01;;;;;;;0.90;0.80;;;19.60;99.90;;;;;;6240888;22;20404;-78
2022/10/26 12:19:58;;;;;;;0.55;0.55;;;19.70;99.90;;;;;;6240688;23;20447;-78
2022/10/26 12:22:51;;;;;;;1.45;0.80;;;20.00;99.90;;;;;;6240436;22;20877;-78
2022/10/26 12:25:24;;;;;;;1.60;0.70;;;20.20;99.90;;;;;;6235193;22;20396;-78
2022/10/26 12:27:57;;;;;;;1.70;0.77;;;20.50;99.90;;;;;;6249347;23;20443;-78
2022/10/26 12:30:33;;;;;;;0.55;0.55;;;20.50;99.90;;;;;;6240713;22;20389;-78
2022/10/26 12:33:04;;;;;;;2.25;0.70;;;20.90;99.90;;;;;;6239161;22;20389;-78
2022/10/26 12:35:36;;;;;;;0.68;0.60;;;21.10;99.90;;;;;;6240490;22;20746;-78
2022/10/26 12:38:27;;;;;;;0.80;0.50;;;21.10;99.90;;;;;;6239930;23;20385;-78
2022/10/26 12:41:05;;;;;;;0.73;0.73;;;21.00;99.90;;;;;;6237405;23;21055;-78
2022/10/26 12:43:36;;;;;;;0.60;0.60;;;21.00;99.90;;;;;;6238043;23;20398;-78
2022/10/26 12:46:12;;;;;;;0.85;0.70;;;20.90;99.90;;;;;;6240152;22;20394;-77
2022/10/26 12:48:44;;;;;;;1.40;0.60;;;21.10;99.90;;;;;;6239957;23;20444;-77
2022/10/26 12:51:25;;;;;;;0.68;0.65;;;21.20;99.90;;;;;;6239656;22;20386;-77
2022/10/26 12:54:22;;;;;;;0.50;0.50;;;21.20;99.90;;;;;;6238934;23;20540;-77
2022/10/26 12:56:54;;;;;;;0.50;0.50;;;21.30;99.90;;;;;;6249768;22;20381;-76
2022/10/26 12:59:36;;;;;;;0.50;0.50;;;21.30;99.90;;;;;;6239407;22;20952;-77
2022/10/26 13:02:26;;;;;;;0.40;0.40;;;20.90;99.90;;;;;;6239720;22;20443;-77
2022/10/26 13:05:18;;;;;;;0.73;0.55;;;21.20;99.90;;;;;;6237581;23;20738;-77
2022/10/26 13:07:45;;;;;;;0.52;0.52;;;21.20;99.90;;;;;;6239218;23;20386;-77
2022/10/26 13:10:12;;;;;;;0.57;0.57;;;21.20;99.90;;;;;;6248446;23;20390;-77
2022/10/26 13:12:41;;;;;;;0.50;0.50;;;21.20;99.90;;;;;;6239982;23;20385;-77
2022/10/26 13:15:57;;;;;;;0.60;0.57;;;21.30;99.90;;;;;;6239268;23;20398;-77
2022/10/26 13:18:28;;;;;;;0.50;0.50;;;21.30;99.90;;;;;;6231321;23;20459;-78
2022/10/26 13:21:13;;;;;;;1.30;0.60;;;21.30;99.90;;;;;;6239786;22;20397;-79
2022/10/26 13:23:46;;;;;;;0.52;0.52;;;21.40;99.90;;;;;;6247742;23;20381;-79
2022/10/26 13:26:16;;;;;;;0.40;0.40;;;21.50;99.90;;;;;;6240101;22;20393;-78